Saratoga, WY

6:21 PM MDT on September 29, 2016 (GMT -0600)
Shively

Weather History for KSAA - February, 2014

Change the Weather History Date:

Wednesday, February 12, 2014

  Actual Average Record
Temperature  
Mean Temperature 32 °F -  
Max Temperature 37 °F 39 °F 50 °F (2015)
Min Temperature 26 °F 15 °F 23 °F (2015)
Degree Days  
Heating Degree Days 34    
Moisture  
Dew Point 24 °F    
Average Humidity 72    
Maximum Humidity 93    
Minimum Humidity 52    
Precipitation  
Precipitation 0.00 in - - ()
Sea Level Pressure  
Sea Level Pressure 30.01 in    
Wind  
Wind Speed 15 mph (SW)    
Max Wind Speed 36 mph    
Max Gust Speed 44 mph    
Visibility 10 miles    
Events Snow    
Averages and records for this station are not official NWS values.
T = Trace of Precipitation, MM = Missing Value Source: NWS Daily Summary

Daily Weather History Graph

Daily Weather History Graph

Search for Another Location

Airport or City:

Trip Planner

Search our weather history database for the weather conditions in past years. The results will help you decide how hot, cold, wet, or windy it might be!

Date:

Astronomy

Feb. 12, 2014 Rise Set
Actual Time 7:06 AM MST 5:37 PM MST
Civil Twilight 6:37 AM MST 6:06 PM MST
Nautical Twilight 6:05 AM MST 6:38 PM MST
Astronomical Twilight 5:32 AM MST 7:10 PM MST
Moon 3:53 PM MST (2/12) 5:25 AM MST (2/12)
Length of Visible Light 11h 28m
Length of Day
10h 31m
Waxing Gibbous, 96% of the Moon is Illuminated
Feb 12
Waxing Gibbous
Feb 14
Full
Feb 22
Last Quarter
Mar 1
New
Mar 8
First Quarter

Hourly Weather History & Observations

Time (MST) Temp. Windchill Dew Point Humidity Pressure Visibility Wind Dir Wind Speed Gust Speed Precip Events Conditions
12:15 AM 28.4 °F 17.0 °F 23.0 °F 80% 30.14 in 10.0 mi West 15.0 mph 20.7 mph N/A   Overcast
12:35 AM 28.4 °F 17.5 °F 23.0 °F 80% 30.14 in 10.0 mi WSW 13.8 mph 17.3 mph N/A   Overcast
12:55 AM 28.4 °F 16.6 °F 21.2 °F 74% 30.14 in 10.0 mi WSW 16.1 mph 19.6 mph N/A   Overcast
1:15 AM 28.4 °F 15.8 °F 21.2 °F 74% 30.13 in 10.0 mi WSW 18.4 mph 24.2 mph N/A   Overcast
1:35 AM 26.6 °F 14.3 °F 21.2 °F 80% 30.14 in 10.0 mi WSW 16.1 mph 21.9 mph N/A   Mostly Cloudy
1:55 AM 26.6 °F 14.3 °F 21.2 °F 80% 30.13 in 10.0 mi West 16.1 mph 23.0 mph N/A   Scattered Clouds
2:15 AM 26.6 °F 15.2 °F 21.2 °F 80% 30.12 in 10.0 mi WSW 13.8 mph 21.9 mph N/A   Clear
2:35 AM 26.6 °F 16.2 °F 21.2 °F 80% 30.13 in 10.0 mi SW 11.5 mph - N/A   Clear
2:55 AM 26.6 °F 16.2 °F 21.2 °F 80% 30.13 in 10.0 mi SW 11.5 mph - N/A   Clear
3:15 AM 26.6 °F 16.2 °F 21.2 °F 80% 30.13 in 10.0 mi SW 11.5 mph - N/A   Clear
3:35 AM 26.6 °F 15.7 °F 21.2 °F 80% 30.13 in 10.0 mi SW 12.7 mph - N/A   Clear
3:55 AM 26.6 °F 16.2 °F 21.2 °F 80% 30.13 in 10.0 mi WSW 11.5 mph - N/A   Clear
4:15 AM 26.6 °F 17.5 °F 21.2 °F 80% 30.14 in 10.0 mi SW 9.2 mph - N/A   Clear
4:35 AM 28.4 °F 19.1 °F 21.2 °F 74% 30.12 in 10.0 mi SW 10.4 mph - N/A   Clear
4:55 AM 28.4 °F 19.7 °F 21.2 °F 74% 30.13 in 10.0 mi SW 9.2 mph - N/A   Clear
5:15 AM 28.4 °F 20.4 °F 21.2 °F 74% 30.13 in 10.0 mi SW 8.1 mph - N/A   Scattered Clouds
5:35 AM 28.4 °F 24.6 °F 21.2 °F 74% 30.12 in 10.0 mi SSW 3.5 mph - N/A   Mostly Cloudy
5:55 AM 28.4 °F 21.2 °F 21.2 °F 74% 30.11 in 10.0 mi SSW 6.9 mph - N/A   Overcast
6:15 AM 30.2 °F 20.2 °F 19.4 °F 64% 30.10 in 10.0 mi SW 12.7 mph 16.1 mph N/A   Scattered Clouds
6:35 AM 30.2 °F 19.8 °F 19.4 °F 64% 30.09 in 10.0 mi SSW 13.8 mph 19.6 mph N/A   Clear
6:55 AM 28.4 °F 19.7 °F 19.4 °F 69% 30.09 in 10.0 mi South 9.2 mph - N/A   Scattered Clouds
7:15 AM 30.2 °F 23.4 °F 19.4 °F 64% 30.09 in 10.0 mi South 6.9 mph - N/A   Mostly Cloudy
7:35 AM 30.2 °F 17.8 °F 21.2 °F 69% 30.07 in 10.0 mi SW 19.6 mph - N/A   Overcast
7:55 AM 30.2 °F 17.8 °F 19.4 °F 64% 30.06 in 10.0 mi SW 19.6 mph - N/A   Mostly Cloudy
8:15 AM 30.2 °F 20.2 °F 21.2 °F 69% 30.05 in 10.0 mi SSW 12.7 mph - N/A   Mostly Cloudy
8:35 AM 30.2 °F 22.6 °F 21.2 °F 69% 30.05 in 10.0 mi SSW 8.1 mph - N/A   Overcast
8:55 AM 30.2 °F 22.6 °F 19.4 °F 64% 30.05 in 10.0 mi SSW 8.1 mph - N/A   Overcast
9:15 AM 32.0 °F 25.6 °F 21.2 °F 64% 30.04 in 10.0 mi South 6.9 mph - N/A   Overcast
9:35 AM 32.0 °F 27.5 °F 21.2 °F 64% 30.03 in 10.0 mi South 4.6 mph - N/A   Overcast
9:55 AM 32.0 °F 26.4 °F 21.2 °F 64% 30.03 in 10.0 mi SW 5.8 mph - N/A   Overcast
10:15 AM 32.0 °F 28.7 °F 21.2 °F 64% 30.03 in 10.0 mi SSE 3.5 mph - N/A   Overcast
10:35 AM 32.0 °F - 19.4 °F 60% 30.02 in 10.0 mi Calm Calm - N/A   Overcast
10:55 AM 33.8 °F 27.0 °F 19.4 °F 56% 30.01 in 10.0 mi WSW 8.1 mph - N/A   Overcast
11:15 AM 33.8 °F 22.8 °F 19.4 °F 56% 30.02 in 10.0 mi SW 18.4 mph 25.3 mph N/A   Overcast
11:35 AM 33.8 °F 23.9 °F 19.4 °F 56% 30.00 in 10.0 mi SW 15.0 mph 26.5 mph N/A   Overcast
11:55 AM 35.6 °F 28.0 °F 21.2 °F 56% 29.99 in 10.0 mi SSW 10.4 mph 16.1 mph N/A   Overcast
12:15 PM 35.6 °F 27.1 °F 21.2 °F 56% 29.97 in 10.0 mi SSW 12.7 mph 24.2 mph N/A   Overcast
12:35 PM 35.6 °F 28.0 °F 21.2 °F 56% 29.96 in 10.0 mi SW 10.4 mph 25.3 mph N/A   Scattered Clouds
12:55 PM 35.6 °F 29.9 °F 19.4 °F 52% 29.96 in 10.0 mi SSW 6.9 mph 20.7 mph N/A   Mostly Cloudy
1:15 PM 35.6 °F 28.0 °F 21.2 °F 56% 29.94 in 10.0 mi South 10.4 mph 18.4 mph N/A   Overcast
1:35 PM 35.6 °F 25.9 °F 21.2 °F 56% 29.93 in 10.0 mi South 16.1 mph 24.2 mph N/A   Overcast
1:55 PM 35.6 °F 27.1 °F 23.0 °F 60% 29.92 in 10.0 mi South 12.7 mph 26.5 mph N/A   Overcast
2:15 PM 35.6 °F 25.2 °F 23.0 °F 60% 29.92 in 10.0 mi SSW 18.4 mph 27.6 mph N/A   Overcast
2:36 PM 35.6 °F 24.0 °F 23.0 °F 60% 29.92 in 10.0 mi SSW 23.0 mph 32.2 mph N/A   Overcast
2:55 PM 35.6 °F 22.7 °F 23.0 °F 60% 29.90 in 10.0 mi SW 28.8 mph 36.8 mph N/A   Overcast
3:15 PM 37.4 °F 25.2 °F 24.8 °F 60% 29.92 in 10.0 mi SW 28.8 mph 35.7 mph N/A   Overcast
3:35 PM 37.4 °F 26.9 °F 23.0 °F 56% 29.92 in 10.0 mi SW 20.7 mph 28.8 mph N/A   Overcast
3:56 PM 35.6 °F 24.5 °F 24.8 °F 65% 29.91 in 10.0 mi SW 20.7 mph 28.8 mph N/A   Mostly Cloudy
4:15 PM 35.6 °F 25.2 °F 24.8 °F 65% 29.92 in 10.0 mi SW 18.4 mph 26.5 mph N/A   Overcast
4:35 PM 35.6 °F 25.5 °F 24.8 °F 65% 29.92 in 10.0 mi SW 17.3 mph 21.9 mph N/A   Overcast
4:55 PM 35.6 °F 25.9 °F 26.6 °F 70% 29.92 in 10.0 mi SW 16.1 mph 25.3 mph N/A   Overcast
5:15 PM 35.6 °F 25.5 °F 26.6 °F 70% 29.93 in 10.0 mi SW 17.3 mph 25.3 mph N/A   Overcast
5:35 PM 33.8 °F 25.8 °F 26.6 °F 75% 29.92 in 10.0 mi SSW 10.4 mph 26.5 mph N/A   Overcast
5:55 PM 33.8 °F 27.0 °F 28.4 °F 81% 29.95 in 10.0 mi SW 8.1 mph 24.2 mph N/A   Overcast
6:15 PM 32.0 °F 21.2 °F 28.4 °F 87% 29.95 in 10.0 mi WSW 16.1 mph 20.7 mph N/A   Overcast
6:35 PM 32.0 °F 20.8 °F 30.2 °F 93% 29.95 in 10.0 mi SW 17.3 mph 20.7 mph N/A Snow Light Snow
6:55 PM 32.0 °F 21.6 °F 30.2 °F 93% 29.96 in 10.0 mi WSW 15.0 mph 23.0 mph N/A   Overcast
7:15 PM 32.0 °F 22.1 °F 28.4 °F 87% 29.96 in 10.0 mi WSW 13.8 mph 18.4 mph N/A   Overcast
7:35 PM 32.0 °F 22.1 °F 28.4 °F 87% 29.95 in 10.0 mi WSW 13.8 mph - N/A   Mostly Cloudy
7:55 PM 33.8 °F 22.5 °F 28.4 °F 81% 29.94 in 10.0 mi WSW 19.6 mph 26.5 mph N/A   Scattered Clouds
8:15 PM 33.8 °F 22.8 °F 30.2 °F 87% 29.93 in 10.0 mi WSW 18.4 mph 24.2 mph N/A   Clear
8:35 PM 33.8 °F 20.5 °F 30.2 °F 87% 29.93 in 10.0 mi WSW 27.6 mph 39.1 mph N/A   Clear
8:55 PM 35.6 °F 22.7 °F 30.2 °F 81% 29.92 in 10.0 mi WSW 28.8 mph 36.8 mph N/A   Clear
9:15 PM 35.6 °F 22.5 °F 30.2 °F 81% 29.93 in 10.0 mi WSW 29.9 mph 38.0 mph N/A   Clear
9:35 PM 33.8 °F 20.8 °F 30.2 °F 87% 29.93 in 10.0 mi WSW 26.5 mph 33.4 mph N/A   Clear
9:55 PM 33.8 °F 21.6 °F 30.2 °F 87% 29.95 in 10.0 mi West 23.0 mph 34.5 mph N/A   Clear
10:15 PM 33.8 °F 21.0 °F 30.2 °F 87% 29.93 in 10.0 mi WSW 25.3 mph 33.4 mph N/A   Clear
10:35 PM 33.8 °F 20.5 °F 30.2 °F 87% 29.92 in 10.0 mi WSW 27.6 mph 34.5 mph N/A   Clear
10:55 PM 35.6 °F 21.5 °F 30.2 °F 81% 29.92 in 10.0 mi West 35.7 mph 43.7 mph N/A   Clear
11:15 PM 33.8 °F 20.1 °F 30.2 °F 87% 29.92 in 10.0 mi WSW 29.9 mph 42.6 mph N/A   Clear
11:35 PM 33.8 °F 20.3 °F 30.2 °F 87% 29.92 in 10.0 mi WSW 28.8 mph 40.3 mph N/A   Clear
11:56 PM 33.8 °F 20.5 °F 30.2 °F 87% 29.92 in 10.0 mi West 27.6 mph 43.7 mph N/A   Clear